Time;durP1;ratioP1;P1;durP2;ratioP2;P2;SDS_P1;SDS_P2;PMS_P1;PMS_P2;Temp;Humidity;BMP_temperature;BMP_pressure;BME280_temperature;BME280_humidity;BME280_pressure;Samples;Min_cycle;Max_cycle;Signal;HPM_P1;HPM_P2
2022/09/01 00:01:20;;;;;;;18.58;16.70;;;;;;;;;;5155930;27;20030;-59
2022/09/01 00:03:47;;;;;;;21.80;19.45;;;;;;;;;;5156532;27;20087;-59
2022/09/01 00:06:21;;;;;;;16.60;15.15;;;;;;;;;;5155855;27;20456;-59
2022/09/01 00:08:47;;;;;;;18.05;16.40;;;;;;;;;;5157068;27;20062;-59
2022/09/01 00:11:13;;;;;;;18.58;16.77;;;;;;;;;;5155901;27;20056;-59
2022/09/01 00:13:39;;;;;;;16.88;15.35;;;;;;;;;;5156480;27;20023;-59
2022/09/01 00:16:05;;;;;;;18.42;16.63;;;;;;;;;;5155810;27;20061;-59
2022/09/01 00:18:31;;;;;;;18.60;16.10;;;;;;;;;;5156010;27;20084;-59
2022/09/01 00:20:58;;;;;;;17.95;16.17;;;;;;;;;;5155621;27;20030;-59
2022/09/01 00:23:25;;;;;;;20.25;18.13;;;;;;;;;;5156399;27;20031;-59
2022/09/01 00:25:51;;;;;;;19.02;17.25;;;;;;;;;;5155674;27;20030;-59
2022/09/01 00:28:17;;;;;;;18.52;16.60;;;;;;;;;;5155795;27;20444;-59
2022/09/01 00:30:43;;;;;;;19.25;17.23;;;;;;;;;;5155626;27;20102;-59
2022/09/01 00:33:09;;;;;;;19.23;17.30;;;;;;;;;;5156108;27;20052;-59
2022/09/01 00:35:35;;;;;;;21.42;18.85;;;;;;;;;;5156011;27;20516;-59
2022/09/01 00:38:01;;;;;;;16.50;14.90;;;;;;;;;;5155558;27;20026;-59
2022/09/01 00:40:27;;;;;;;16.60;15.00;;;;;;;;;;5155481;27;20463;-59
2022/09/01 00:42:52;;;;;;;18.85;17.08;;;;;;;;;;5156346;27;20056;-59
2022/09/01 00:45:20;;;;;;;17.35;15.65;;;;;;;;;;5155643;27;20101;-59
2022/09/01 00:47:46;;;;;;;16.88;15.18;;;;;;;;;;5155449;27;20402;-59
2022/09/01 00:50:14;;;;;;;17.08;15.55;;;;;;;;;;5155410;27;20029;-59
2022/09/01 00:52:45;;;;;;;17.92;15.60;;;;;;;;;;5155997;27;20046;-59
2022/09/01 00:55:16;;;;;;;17.00;15.15;;;;;;;;;;5155919;27;20465;-59
2022/09/01 00:57:42;;;;;;;;;;;;;;;;;;5156132;27;20030;-59
2022/09/01 01:00:10;;;;;;;16.83;15.07;;;;;;;;;;5155805;27;19956;-59
2022/09/01 01:02:37;;;;;;;18.08;15.45;;;;;;;;;;5156025;27;20034;-59
2022/09/01 01:05:04;;;;;;;16.25;14.65;;;;;;;;;;5155829;27;20109;-59
2022/09/01 01:07:32;;;;;;;16.55;14.95;;;;;;;;;;5155295;27;20034;-59
2022/09/01 01:09:58;;;;;;;16.67;14.93;;;;;;;;;;5155237;27;20492;-59
2022/09/01 01:12:26;;;;;;;15.43;13.90;;;;;;;;;;5154887;27;20023;-59
2022/09/01 01:14:53;;;;;;;15.68;14.07;;;;;;;;;;5155783;27;20026;-59
2022/09/01 01:17:21;;;;;;;15.15;13.55;;;;;;;;;;5155128;27;20026;-59
2022/09/01 01:25:21;;;;;;;18.77;15.55;;;;;;;;;;5155193;27;20033;-59
2022/09/01 01:27:47;;;;;;;17.80;15.85;;;;;;;;;;5155554;27;20030;-59
2022/09/01 01:30:13;;;;;;;17.00;15.25;;;;;;;;;;5155086;27;20353;-59
2022/09/01 01:32:42;;;;;;;17.73;14.88;;;;;;;;;;5155019;27;20054;-59
2022/09/01 01:35:13;;;;;;;16.05;14.25;;;;;;;;;;5158389;27;20109;-59
2022/09/01 01:37:39;;;;;;;18.25;16.48;;;;;;;;;;5159382;27;20030;-59
2022/09/01 01:40:05;;;;;;;19.45;15.80;;;;;;;;;;5159223;27;20023;-59
2022/09/01 01:42:36;;;;;;;17.77;15.93;;;;;;;;;;5158938;27;20030;-59
2022/09/01 01:45:02;;;;;;;17.67;15.98;;;;;;;;;;5158596;27;20054;-59
2022/09/01 01:47:28;;;;;;;17.58;15.75;;;;;;;;;;5158946;27;20029;-59
2022/09/01 01:49:55;;;;;;;16.55;14.77;;;;;;;;;;5159104;27;20035;-59
2022/09/01 01:52:23;;;;;;;17.13;15.63;;;;;;;;;;5158276;27;20051;-59
2022/09/01 01:54:49;;;;;;;18.02;16.25;;;;;;;;;;5158452;27;20054;-59
2022/09/01 01:57:16;;;;;;;19.60;16.73;;;;;;;;;;5158746;27;20033;-59
2022/09/01 01:59:43;;;;;;;16.25;14.73;;;;;;;;;;5158845;27;20031;-59
2022/09/01 02:02:11;;;;;;;17.88;16.08;;;;;;;;;;5158352;27;20117;-59
2022/09/01 02:04:39;;;;;;;18.73;16.83;;;;;;;;;;5158338;27;20151;-59
2022/09/01 02:07:05;;;;;;;18.92;16.40;;;;;;;;;;5158471;27;20372;-59
2022/09/01 02:09:31;;;;;;;17.80;16.00;;;;;;;;;;5158183;27;20019;-59
2022/09/01 02:11:57;;;;;;;17.90;16.10;;;;;;;;;;5158205;27;20428;-59
2022/09/01 02:14:23;;;;;;;24.55;17.73;;;;;;;;;;5158117;27;20459;-59
2022/09/01 02:16:49;;;;;;;19.67;16.83;;;;;;;;;;5158690;27;20027;-59
2022/09/01 02:19:19;;;;;;;19.02;17.10;;;;;;;;;;5158051;27;20023;-59
2022/09/01 02:21:47;;;;;;;20.27;18.30;;;;;;;;;;5158488;27;20053;-59
2022/09/01 02:24:14;;;;;;;18.75;16.63;;;;;;;;;;5158759;27;20456;-59
2022/09/01 02:26:44;;;;;;;21.27;15.95;;;;;;;;;;5157837;27;20027;-59
2022/09/01 02:29:17;;;;;;;18.80;16.80;;;;;;;;;;5158759;27;20022;-59
2022/09/01 02:31:44;;;;;;;20.58;16.90;;;;;;;;;;5158083;27;20026;-59
2022/09/01 02:34:12;;;;;;;18.70;16.70;;;;;;;;;;5157750;27;20023;-59
2022/09/01 02:36:43;;;;;;;20.02;17.55;;;;;;;;;;5157665;27;20159;-59
2022/09/01 02:39:08;;;;;;;18.95;17.02;;;;;;;;;;5158269;27;20349;-59
2022/09/01 02:41:34;;;;;;;19.13;17.20;;;;;;;;;;5157540;27;20079;-59
2022/09/01 02:44:01;;;;;;;18.88;17.00;;;;;;;;;;5158179;27;20033;-59
2022/09/01 02:46:28;;;;;;;19.27;17.27;;;;;;;;;;5156150;27;20110;-59
2022/09/01 02:48:54;;;;;;;20.15;18.30;;;;;;;;;;5157386;27;20026;-59
2022/09/01 02:51:22;;;;;;;19.67;17.70;;;;;;;;;;5157482;27;20066;-59
2022/09/01 02:53:51;;;;;;;18.60;16.90;;;;;;;;;;5158139;27;20063;-59
2022/09/01 02:56:19;;;;;;;20.08;17.25;;;;;;;;;;5158049;27;20027;-59
2022/09/01 02:58:45;;;;;;;23.05;18.77;;;;;;;;;;5157755;27;20027;-59
2022/09/01 03:01:13;;;;;;;19.45;17.10;;;;;;;;;;5157074;27;20069;-59
2022/09/01 03:03:39;;;;;;;22.65;18.17;;;;;;;;;;5157944;27;20410;-59
2022/09/01 03:06:05;;;;;;;21.48;17.80;;;;;;;;;;5156746;27;20357;-59
2022/09/01 03:08:37;;;;;;;21.25;19.02;;;;;;;;;;5156985;27;20031;-59
2022/09/01 03:11:06;;;;;;;19.73;17.73;;;;;;;;;;5157546;27;20030;-59
2022/09/01 03:13:32;;;;;;;20.48;17.48;;;;;;;;;;5157484;27;20056;-59
2022/09/01 03:15:58;;;;;;;20.83;18.52;;;;;;;;;;5156794;27;20026;-59
2022/09/01 03:18:24;;;;;;;25.45;19.33;;;;;;;;;;5156802;27;20033;-59
2022/09/01 03:20:51;;;;;;;19.52;17.52;;;;;;;;;;5157024;27;20113;-59
2022/09/01 03:23:17;;;;;;;24.23;17.08;;;;;;;;;;5156728;27;20027;-59
2022/09/01 03:25:44;;;;;;;19.05;17.13;;;;;;;;;;5156705;27;20536;-59
2022/09/01 03:28:11;;;;;;;20.58;18.55;;;;;;;;;;5156628;27;20114;-59
2022/09/01 03:30:39;;;;;;;19.30;17.33;;;;;;;;;;5156519;27;20034;-59
2022/09/01 03:33:06;;;;;;;20.50;17.30;;;;;;;;;;5157152;27;20038;-59
2022/09/01 03:35:32;;;;;;;19.17;17.17;;;;;;;;;;5156815;27;20056;-59
2022/09/01 03:37:59;;;;;;;20.13;18.08;;;;;;;;;;5156802;27;20023;-59
2022/09/01 03:40:31;;;;;;;18.75;16.95;;;;;;;;;;5156938;27;20401;-59
2022/09/01 03:42:57;;;;;;;20.52;18.45;;;;;;;;;;5157293;27;20041;-59
2022/09/01 03:45:24;;;;;;;20.92;18.80;;;;;;;;;;5156273;27;20058;-59
2022/09/01 03:47:51;;;;;;;21.20;18.80;;;;;;;;;;5156273;27;20380;-59
2022/09/01 03:50:19;;;;;;;19.98;17.92;;;;;;;;;;5156254;27;20035;-59
2022/09/01 03:52:49;;;;;;;19.17;17.10;;;;;;;;;;5156432;27;20074;-59
2022/09/01 03:55:22;;;;;;;20.83;18.70;;;;;;;;;;5156488;27;20105;-59
2022/09/01 03:57:48;;;;;;;22.38;18.58;;;;;;;;;;5156092;27;20031;-59
2022/09/01 04:00:19;;;;;;;20.13;18.13;;;;;;;;;;5155759;27;20519;-59
2022/09/01 04:02:46;;;;;;;;;;;;;;;;;;5157401;27;20031;-59
2022/09/01 04:05:12;;;;;;;19.63;17.55;;;;;;;;;;5156031;27;19914;-59
2022/09/01 04:07:38;;;;;;;21.13;17.55;;;;;;;;;;5156006;27;20367;-59
2022/09/01 04:10:04;;;;;;;21.55;19.35;;;;;;;;;;5156257;27;20061;-59
2022/09/01 04:12:31;;;;;;;21.95;19.77;;;;;;;;;;5156695;27;20038;-58
2022/09/01 04:14:59;;;;;;;21.70;19.38;;;;;;;;;;5156431;27;20080;-59
2022/09/01 04:20:10;;;;;;;21.02;19.02;;;;;;;;;;5155833;27;20103;-59
2022/09/01 04:22:37;;;;;;;22.13;19.98;;;;;;;;;;5155738;27;20055;-59
2022/09/01 04:25:03;;;;;;;20.30;18.25;;;;;;;;;;5156267;27;20442;-59
2022/09/01 04:27:29;;;;;;;21.33;19.00;;;;;;;;;;5155707;27;20023;-59
2022/09/01 04:29:55;;;;;;;22.17;19.77;;;;;;;;;;5155733;27;20049;-59
2022/09/01 04:32:23;;;;;;;23.60;20.35;;;;;;;;;;5155596;27;20050;-59
2022/09/01 04:34:49;;;;;;;20.58;18.35;;;;;;;;;;5156213;27;20019;-59
2022/09/01 04:37:19;;;;;;;21.60;19.48;;;;;;;;;;5156127;27;20372;-59
2022/09/01 04:39:52;;;;;;;18.42;16.65;;;;;;;;;;5155837;27;20038;-59
2022/09/01 04:42:19;;;;;;;18.83;17.05;;;;;;;;;;5155542;27;20037;-59
2022/09/01 04:44:45;;;;;;;17.80;16.10;;;;;;;;;;5155452;27;20105;-59
2022/09/01 04:47:15;;;;;;;17.35;15.55;;;;;;;;;;5155437;27;20023;-59
2022/09/01 04:49:44;;;;;;;17.65;15.70;;;;;;;;;;5155765;27;20109;-59
2022/09/01 04:52:11;;;;;;;22.40;18.85;;;;;;;;;;5155645;27;20046;-59
2022/09/01 04:54:37;;;;;;;18.92;16.45;;;;;;;;;;5155423;27;20030;-59
2022/09/01 04:57:05;;;;;;;17.85;16.15;;;;;;;;;;5155953;27;20030;-59
2022/09/01 04:59:31;;;;;;;18.77;16.88;;;;;;;;;;5155260;27;20027;-59
2022/09/01 05:01:59;;;;;;;17.40;15.10;;;;;;;;;;5155633;27;20031;-59
2022/09/01 05:04:26;;;;;;;16.42;14.25;;;;;;;;;;5155917;27;20030;-59
2022/09/01 05:06:59;;;;;;;18.70;16.63;;;;;;;;;;5156084;27;20068;-59
2022/09/01 05:09:26;;;;;;;17.92;15.88;;;;;;;;;;5157579;27;20034;-59
2022/09/01 05:11:52;;;;;;;16.83;14.80;;;;;;;;;;5159571;27;20068;-59
2022/09/01 05:14:18;;;;;;;14.90;13.48;;;;;;;;;;5159431;27;20046;-59
2022/09/01 05:16:45;;;;;;;15.82;14.23;;;;;;;;;;5159751;27;20041;-59
2022/09/01 05:19:13;;;;;;;15.63;13.80;;;;;;;;;;5159461;27;20067;-59
2022/09/01 05:21:40;;;;;;;17.20;14.57;;;;;;;;;;5159343;27;20076;-59
2022/09/01 05:24:07;;;;;;;16.38;14.77;;;;;;;;;;5160049;27;20119;-59
2022/09/01 05:26:33;;;;;;;15.23;13.55;;;;;;;;;;5159268;27;20099;-59
2022/09/01 05:29:01;;;;;;;22.10;13.35;;;;;;;;;;5158991;27;20453;-59
2022/09/01 05:31:33;;;;;;;16.23;14.43;;;;;;;;;;5159532;27;20122;-59
2022/09/01 05:34:00;;;;;;;14.00;12.57;;;;;;;;;;5159791;27;20022;-59
2022/09/01 05:36:27;;;;;;;21.70;14.52;;;;;;;;;;5159462;27;20050;-59
2022/09/01 05:38:53;;;;;;;14.77;12.82;;;;;;;;;;5158847;27;20072;-59
2022/09/01 05:41:22;;;;;;;13.77;12.38;;;;;;;;;;5158732;27;20034;-59
2022/09/01 05:43:50;;;;;;;13.00;11.57;;;;;;;;;;5158751;27;20468;-59
2022/09/01 05:46:19;;;;;;;16.48;12.50;;;;;;;;;;5158576;27;20033;-59
2022/09/01 05:48:48;;;;;;;13.90;12.32;;;;;;;;;;5158348;27;20583;-59
2022/09/01 05:51:16;;;;;;;18.48;14.88;;;;;;;;;;5158195;27;20051;-59
2022/09/01 05:53:43;;;;;;;15.85;14.25;;;;;;;;;;5158527;27;20031;-59
2022/09/01 05:56:12;;;;;;;18.27;16.42;;;;;;;;;;5158578;27;20098;-59
2022/09/01 05:58:39;;;;;;;20.45;16.35;;;;;;;;;;5158454;27;20050;-59
2022/09/01 06:01:05;;;;;;;16.38;14.68;;;;;;;;;;5158677;27;20026;-59
2022/09/01 06:03:32;;;;;;;17.15;15.35;;;;;;;;;;5158783;27;20065;-59
2022/09/01 06:06:02;;;;;;;18.52;16.50;;;;;;;;;;5159128;27;20023;-59
2022/09/01 06:08:28;;;;;;;19.42;17.10;;;;;;;;;;5158649;27;20026;-59
2022/09/01 06:10:54;;;;;;;18.35;16.40;;;;;;;;;;5158574;27;20132;-59
2022/09/01 06:13:20;;;;;;;19.17;16.50;;;;;;;;;;5158809;27;20442;-59
2022/09/01 06:15:50;;;;;;;19.73;16.58;;;;;;;;;;5158982;27;20041;-59
2022/09/01 06:18:20;;;;;;;17.50;15.70;;;;;;;;;;5158088;27;20031;-59
2022/09/01 06:20:47;;;;;;;15.52;13.60;;;;;;;;;;5157818;27;20058;-59
2022/09/01 06:23:15;;;;;;;19.45;17.50;;;;;;;;;;5158347;27;20110;-59
2022/09/01 06:25:44;;;;;;;22.63;16.35;;;;;;;;;;5157886;27;20022;-59
2022/09/01 06:28:11;;;;;;;16.77;15.10;;;;;;;;;;5157860;27;20372;-59
2022/09/01 06:30:38;;;;;;;19.67;15.88;;;;;;;;;;5158339;27;20026;-59
2022/09/01 06:33:08;;;;;;;18.35;15.77;;;;;;;;;;5158368;27;20029;-59
2022/09/01 06:35:34;;;;;;;19.73;14.75;;;;;;;;;;5157663;27;20464;-59
2022/09/01 06:38:01;;;;;;;18.00;15.98;;;;;;;;;;5158247;27;20023;-59
2022/09/01 06:40:27;;;;;;;18.95;15.75;;;;;;;;;;5157476;27;20084;-59
2022/09/01 06:42:53;;;;;;;19.50;16.10;;;;;;;;;;5157311;27;20413;-59
2022/09/01 06:45:22;;;;;;;18.27;15.02;;;;;;;;;;5157462;27;20364;-59
2022/09/01 06:47:49;;;;;;;17.60;14.35;;;;;;;;;;5158044;27;20030;-59
2022/09/01 06:50:18;;;;;;;15.75;14.25;;;;;;;;;;5157485;27;20107;-59
2022/09/01 06:52:44;;;;;;;19.83;16.00;;;;;;;;;;5157404;27;20464;-59
2022/09/01 06:55:11;;;;;;;14.48;13.00;;;;;;;;;;5158175;27;20049;-59
2022/09/01 06:57:38;;;;;;;18.10;15.57;;;;;;;;;;5157769;27;20044;-59
2022/09/01 07:00:16;;;;;;;18.40;13.80;;;;;;;;;;5157182;27;20045;-59
2022/09/01 07:02:43;;;;;;;16.20;14.40;;;;;;;;;;5157023;27;20056;-59
2022/09/01 07:05:09;;;;;;;15.05;13.27;;;;;;;;;;5157501;27;20023;-59
2022/09/01 07:07:36;;;;;;;15.23;13.65;;;;;;;;;;5156818;27;20426;-59
2022/09/01 07:10:03;;;;;;;16.25;14.65;;;;;;;;;;5156996;27;20022;-59
2022/09/01 07:12:30;;;;;;;15.25;13.30;;;;;;;;;;5157058;27;20019;-59
2022/09/01 07:14:58;;;;;;;15.00;13.40;;;;;;;;;;5157232;27;20027;-59
2022/09/01 07:17:25;;;;;;;15.82;13.05;;;;;;;;;;5156847;27;20027;-59
2022/09/01 07:19:52;;;;;;;16.45;12.68;;;;;;;;;;5157044;27;20407;-59
2022/09/01 07:22:18;;;;;;;14.45;12.98;;;;;;;;;;5157614;27;20035;-59
2022/09/01 07:24:45;;;;;;;17.00;13.43;;;;;;;;;;5157154;27;20025;-59
2022/09/01 07:27:11;;;;;;;12.45;11.25;;;;;;;;;;5156760;27;20074;-59
2022/09/01 07:29:38;;;;;;;12.68;11.43;;;;;;;;;;5156693;27;20030;-59
2022/09/01 07:32:04;;;;;;;13.77;12.45;;;;;;;;;;5156787;27;20125;-59
2022/09/01 07:34:31;;;;;;;15.35;12.90;;;;;;;;;;5157462;27;20406;-59
2022/09/01 07:36:58;;;;;;;12.73;11.20;;;;;;;;;;5157095;27;20347;-59
2022/09/01 07:39:24;;;;;;;12.75;11.35;;;;;;;;;;5157223;27;20062;-59
2022/09/01 07:41:52;;;;;;;14.30;12.70;;;;;;;;;;5156324;27;20464;-59
2022/09/01 07:44:18;;;;;;;14.80;12.23;;;;;;;;;;5156423;27;20479;-59
2022/09/01 07:46:47;;;;;;;15.02;13.52;;;;;;;;;;5156603;27;20079;-59
2022/09/01 07:49:13;;;;;;;13.48;12.00;;;;;;;;;;5156847;27;20105;-59
2022/09/01 07:51:39;;;;;;;12.38;11.15;;;;;;;;;;5156159;27;20600;-59
2022/09/01 07:54:05;;;;;;;13.35;11.07;;;;;;;;;;5156175;27;20027;-59
2022/09/01 07:56:31;;;;;;;12.65;11.40;;;;;;;;;;5156118;27;20060;-59
2022/09/01 07:58:58;;;;;;;13.73;12.30;;;;;;;;;;5156427;27;20019;-59
2022/09/01 08:01:25;;;;;;;13.98;11.25;;;;;;;;;;5156003;27;20033;-59
2022/09/01 08:03:53;;;;;;;11.88;10.68;;;;;;;;;;5156590;27;20027;-59
2022/09/01 08:06:20;;;;;;;14.38;12.93;;;;;;;;;;5156007;27;20031;-59
2022/09/01 08:08:50;;;;;;;16.40;12.15;;;;;;;;;;5155659;27;20015;-59
2022/09/01 08:11:23;;;;;;;14.75;13.25;;;;;;;;;;5155980;27;20038;-59
2022/09/01 08:13:50;;;;;;;13.27;11.98;;;;;;;;;;5156459;27;20026;-59
2022/09/01 08:16:16;;;;;;;13.52;12.23;;;;;;;;;;5155950;27;20057;-59
2022/09/01 08:18:43;;;;;;;15.60;11.00;;;;;;;;;;5155863;27;20043;-59
2022/09/01 08:21:10;;;;;;;13.70;12.10;;;;;;;;;;5154469;27;20023;-59
2022/09/01 08:23:36;;;;;;;14.60;12.60;;;;;;;;;;5155735;27;20034;-59
2022/09/01 08:26:10;;;;;;;14.52;12.00;;;;;;;;;;5155663;27;20011;-59
2022/09/01 08:28:36;;;;;;;13.70;12.15;;;;;;;;;;5155711;27;20491;-59
2022/09/01 08:31:09;;;;;;;15.35;10.65;;;;;;;;;;5155691;27;20023;-59
2022/09/01 08:33:35;;;;;;;13.32;11.75;;;;;;;;;;5156324;27;20079;-59
2022/09/01 08:36:01;;;;;;;12.15;10.15;;;;;;;;;;5155899;27;20031;-59
2022/09/01 08:38:27;;;;;;;11.63;10.32;;;;;;;;;;5155788;27;20109;-59
2022/09/01 08:40:55;;;;;;;12.05;10.80;;;;;;;;;;5156075;27;20014;-59
2022/09/01 08:43:39;;;;;;;10.93;9.93;;;;;;;;;;5158488;27;20078;-59
2022/09/01 08:46:12;;;;;;;11.32;10.23;;;;;;;;;;5159988;27;20023;-59
2022/09/01 08:48:41;;;;;;;10.15;9.13;;;;;;;;;;5159755;27;20577;-59
2022/09/01 08:51:14;;;;;;;11.93;9.82;;;;;;;;;;5159694;27;20051;-59
2022/09/01 08:53:43;;;;;;;10.35;9.35;;;;;;;;;;5160357;27;20022;-59
2022/09/01 08:56:10;;;;;;;10.52;9.43;;;;;;;;;;5160245;27;20030;-59
2022/09/01 08:58:36;;;;;;;10.52;9.20;;;;;;;;;;5159641;27;20023;-59
2022/09/01 09:01:07;;;;;;;9.38;8.57;;;;;;;;;;5159807;27;20079;-59
2022/09/01 09:03:33;;;;;;;9.77;8.35;;;;;;;;;;5159777;27;20035;-59
2022/09/01 09:06:19;;;;;;;8.68;7.75;;;;;;;;;;5159777;27;20025;-59
2022/09/01 09:08:50;;;;;;;8.60;6.97;;;;;;;;;;5159227;27;20023;-59
2022/09/01 09:11:28;;;;;;;10.60;8.82;;;;;;;;;;5159921;27;20038;-59
2022/09/01 09:14:01;;;;;;;9.52;7.38;;;;;;;;;;5159875;27;20111;-59
2022/09/01 09:16:33;;;;;;;9.40;8.32;;;;;;;;;;5159583;27;20405;-59
2022/09/01 09:19:05;;;;;;;11.10;8.52;;;;;;;;;;5158927;27;20452;-59
2022/09/01 09:21:39;;;;;;;9.18;8.20;;;;;;;;;;5159340;27;20026;-59
2022/09/01 09:24:23;;;;;;;8.40;7.53;;;;;;;;;;5159540;27;20110;-59
2022/09/01 09:26:50;;;;;;;9.05;7.95;;;;;;;;;;5159436;27;20022;-59
2022/09/01 09:29:17;;;;;;;8.57;7.68;;;;;;;;;;5159064;27;20015;-59
2022/09/01 09:31:47;;;;;;;8.40;7.28;;;;;;;;;;5158916;27;20109;-59
2022/09/01 09:34:32;;;;;;;8.50;7.70;;;;;;;;;;5159552;27;20042;-59
2022/09/01 09:37:16;;;;;;;8.43;7.05;;;;;;;;;;5159428;27;20030;-59
2022/09/01 09:39:42;;;;;;;9.68;6.22;;;;;;;;;;5158804;27;20368;-59
2022/09/01 09:42:13;;;;;;;7.78;6.70;;;;;;;;;;5158825;27;20037;-59
2022/09/01 09:44:45;;;;;;;9.60;7.97;;;;;;;;;;5159411;27;20329;-59
2022/09/01 09:47:34;;;;;;;9.27;6.85;;;;;;;;;;5159599;27;20034;-59
2022/09/01 09:50:18;;;;;;;8.40;6.53;;;;;;;;;;5158729;27;20040;-59
2022/09/01 09:52:45;;;;;;;5.55;5.00;;;;;;;;;;5159211;27;20046;-59
2022/09/01 09:55:28;;;;;;;5.30;4.80;;;;;;;;;;5157864;27;20022;-59
2022/09/01 09:58:01;;;;;;;6.43;5.43;;;;;;;;;;5158369;27;20019;-59
2022/09/01 10:00:29;;;;;;;6.78;5.80;;;;;;;;;;5158201;27;20065;-59
2022/09/01 10:03:03;;;;;;;5.82;5.32;;;;;;;;;;5159019;27;20030;-59
2022/09/01 10:05:32;;;;;;;5.60;4.88;;;;;;;;;;5159041;27;20101;-59
2022/09/01 10:07:58;;;;;;;5.15;4.63;;;;;;;;;;5158368;27;20019;-59
2022/09/01 10:10:24;;;;;;;4.65;4.15;;;;;;;;;;5158060;27;20345;-59
2022/09/01 10:12:52;;;;;;;5.07;4.20;;;;;;;;;;5158688;27;20026;-59
2022/09/01 10:15:20;;;;;;;5.35;3.60;;;;;;;;;;5159048;27;20019;-59
2022/09/01 10:17:47;;;;;;;4.63;3.65;;;;;;;;;;5158453;27;20502;-59
2022/09/01 10:20:13;;;;;;;4.40;3.70;;;;;;;;;;5157954;27;20532;-59
2022/09/01 10:22:40;;;;;;;5.07;3.78;;;;;;;;;;5158538;27;20026;-59
2022/09/01 10:25:07;;;;;;;4.55;4.07;;;;;;;;;;5158507;27;20448;-59
2022/09/01 10:27:35;;;;;;;4.65;4.15;;;;;;;;;;5157922;27;20023;-59
2022/09/01 10:30:01;;;;;;;7.88;4.10;;;;;;;;;;5157861;27;20420;-59
2022/09/01 10:32:33;;;;;;;4.78;3.88;;;;;;;;;;5157822;27;20107;-59
2022/09/01 10:35:00;;;;;;;5.43;4.00;;;;;;;;;;5158172;27;20018;-59
2022/09/01 10:37:26;;;;;;;4.10;3.50;;;;;;;;;;5157697;27;20026;-59
2022/09/01 10:40:11;;;;;;;6.22;4.00;;;;;;;;;;5157632;27;20528;-59
2022/09/01 10:42:38;;;;;;;4.88;3.72;;;;;;;;;;5157701;27;20113;-59
2022/09/01 10:45:04;;;;;;;6.15;3.80;;;;;;;;;;5157863;27;20026;-59
2022/09/01 10:47:36;;;;;;;4.50;3.50;;;;;;;;;;5157552;27;20060;-59
2022/09/01 10:50:02;;;;;;;6.55;3.47;;;;;;;;;;5157680;27;20536;-59
2022/09/01 10:52:40;;;;;;;4.45;3.55;;;;;;;;;;5157709;27;20050;-59
2022/09/01 10:55:26;;;;;;;4.03;3.50;;;;;;;;;;5157644;27;20369;-59
2022/09/01 10:58:04;;;;;;;4.90;4.15;;;;;;;;;;5147480;27;20033;-59
2022/09/01 11:00:30;;;;;;;4.43;3.88;;;;;;;;;;5157129;27;20051;-59
2022/09/01 11:03:11;;;;;;;7.22;3.35;;;;;;;;;;5157347;27;20095;-59
2022/09/01 11:06:10;;;;;;;4.38;2.88;;;;;;;;;;5156878;27;20079;-59
2022/09/01 11:08:39;;;;;;;5.10;3.40;;;;;;;;;;5122302;27;20030;-59
2022/09/01 11:11:08;;;;;;;5.32;3.67;;;;;;;;;;5156955;27;20023;-59
2022/09/01 11:13:45;;;;;;;3.25;2.90;;;;;;;;;;5157371;27;20094;-59
2022/09/01 11:16:28;;;;;;;3.42;3.08;;;;;;;;;;5157283;27;20375;-59
2022/09/01 11:18:54;;;;;;;4.32;3.35;;;;;;;;;;5157397;27;20029;-59
2022/09/01 11:21:26;;;;;;;4.18;3.25;;;;;;;;;;5156857;27;20038;-59
2022/09/01 11:24:12;;;;;;;5.32;3.63;;;;;;;;;;5156861;27;20019;-59
2022/09/01 11:26:45;;;;;;;4.00;3.28;;;;;;;;;;5157459;27;20022;-59
2022/09/01 11:29:30;;;;;;;4.72;3.03;;;;;;;;;;5157238;27;20156;-59
2022/09/01 11:31:57;;;;;;;4.07;3.08;;;;;;;;;;5156916;27;20025;-59
2022/09/01 11:34:24;;;;;;;4.75;3.50;;;;;;;;;;5156921;27;20374;-59
2022/09/01 11:36:59;;;;;;;5.70;3.03;;;;;;;;;;5156618;27;20460;-59
2022/09/01 11:39:39;;;;;;;3.47;2.80;;;;;;;;;;5156479;27;20029;-59
2022/09/01 11:42:23;;;;;;;4.85;3.45;;;;;;;;;;5156502;27;20058;-59
2022/09/01 11:44:56;;;;;;;3.72;3.15;;;;;;;;;;5156938;27;20058;-59
2022/09/01 11:47:26;;;;;;;3.90;3.28;;;;;;;;;;5156586;27;20514;-59
2022/09/01 11:49:56;;;;;;;4.00;3.45;;;;;;;;;;5156842;27;20035;-59
2022/09/01 11:52:24;;;;;;;4.10;3.13;;;;;;;;;;5156297;27;20043;-59
2022/09/01 11:54:50;;;;;;;3.92;3.50;;;;;;;;;;5156634;27;20026;-59
2022/09/01 11:57:22;;;;;;;5.05;3.63;;;;;;;;;;5156465;27;20033;-59
2022/09/01 11:59:48;;;;;;;4.35;3.17;;;;;;;;;;5156105;27;20439;-59
2022/09/01 12:02:18;;;;;;;3.15;2.85;;;;;;;;;;5156682;27;20110;-59
2022/09/01 12:04:45;;;;;;;;;;;;;;;;;;5157045;27;20023;-59
2022/09/01 12:07:13;;;;;;;5.55;3.28;;;;;;;;;;5156865;27;19914;-59
2022/09/01 12:09:43;;;;;;;4.30;3.25;;;;;;;;;;5155708;27;20018;-59
2022/09/01 12:12:27;;;;;;;4.95;2.80;;;;;;;;;;5156250;27;20027;-59
2022/09/01 12:15:01;;;;;;;4.00;2.63;;;;;;;;;;5156270;27;20018;-59
2022/09/01 12:17:27;;;;;;;3.88;2.55;;;;;;;;;;5155518;27;20015;-59
2022/09/01 12:19:53;;;;;;;5.70;2.60;;;;;;;;;;5155713;27;20022;-59
2022/09/01 12:22:20;;;;;;;3.80;2.65;;;;;;;;;;5155778;27;20117;-59
2022/09/01 12:24:51;;;;;;;3.22;2.63;;;;;;;;;;5156365;27;20026;-59
2022/09/01 12:27:17;;;;;;;4.43;3.03;;;;;;;;;;5155734;27;20023;-59
2022/09/01 12:29:44;;;;;;;3.53;3.05;;;;;;;;;;5155648;27;20027;-59
2022/09/01 12:32:10;;;;;;;6.18;3.45;;;;;;;;;;5155665;27;20101;-59
2022/09/01 12:34:41;;;;;;;4.28;3.03;;;;;;;;;;5156236;27;20360;-59
2022/09/01 12:37:12;;;;;;;4.18;2.78;;;;;;;;;;5156289;27;20449;-59
2022/09/01 12:39:39;;;;;;;4.03;3.08;;;;;;;;;;5155524;27;20468;-59
2022/09/01 12:42:21;;;;;;;4.55;3.28;;;;;;;;;;5155313;27;20031;-59
2022/09/01 12:44:57;;;;;;;3.10;2.80;;;;;;;;;;5156059;27;20098;-59
2022/09/01 12:47:32;;;;;;;4.90;3.45;;;;;;;;;;5155490;27;20029;-59
2022/09/01 12:50:18;;;;;;;4.90;2.90;;;;;;;;;;5155519;27;20019;-59
2022/09/01 12:52:46;;;;;;;3.65;2.85;;;;;;;;;;5155321;27;20059;-59
2022/09/01 12:55:16;;;;;;;3.40;2.72;;;;;;;;;;5155408;27;20023;-59
2022/09/01 12:57:50;;;;;;;4.20;3.80;;;;;;;;;;5155436;27;20015;-59
2022/09/01 13:00:19;;;;;;;4.40;3.55;;;;;;;;;;5155291;27;20280;-59
2022/09/01 13:02:47;;;;;;;3.60;3.20;;;;;;;;;;5155874;27;20027;-59
2022/09/01 13:05:22;;;;;;;4.03;2.80;;;;;;;;;;5155556;27;20101;-59
2022/09/01 13:07:48;;;;;;;3.53;2.80;;;;;;;;;;5155609;27;20022;-59
2022/09/01 13:10:14;;;;;;;3.85;3.15;;;;;;;;;;5155380;27;20023;-59
2022/09/01 13:12:41;;;;;;;4.80;3.35;;;;;;;;;;5155451;27;20034;-59
2022/09/01 13:15:08;;;;;;;4.13;3.38;;;;;;;;;;5156137;27;20368;-59
2022/09/01 13:17:34;;;;;;;3.15;2.42;;;;;;;;;;5155264;27;20018;-59
2022/09/01 13:20:00;;;;;;;3.28;2.38;;;;;;;;;;5155219;27;20023;-59
2022/09/01 13:22:26;;;;;;;3.03;2.42;;;;;;;;;;5155414;27;20452;-59
2022/09/01 13:24:52;;;;;;;3.95;2.70;;;;;;;;;;5156031;27;20067;-59
2022/09/01 13:27:18;;;;;;;2.85;2.10;;;;;;;;;;5155159;27;20368;-59
2022/09/01 13:29:45;;;;;;;3.45;3.03;;;;;;;;;;5155989;27;20062;-59
2022/09/01 13:32:11;;;;;;;3.47;2.75;;;;;;;;;;5158979;27;20110;-59
2022/09/01 13:34:38;;;;;;;4.13;2.95;;;;;;;;;;5159612;27;20030;-59
2022/09/01 13:37:04;;;;;;;4.28;3.15;;;;;;;;;;5158896;27;20106;-59
2022/09/01 13:39:31;;;;;;;3.08;2.63;;;;;;;;;;5158895;27;20062;-59
2022/09/01 13:41:57;;;;;;;3.90;3.13;;;;;;;;;;5159311;27;20023;-59
2022/09/01 13:44:23;;;;;;;3.10;2.63;;;;;;;;;;5159372;27;20019;-59
2022/09/01 13:46:49;;;;;;;4.65;3.30;;;;;;;;;;5158972;27;20471;-59
2022/09/01 13:49:15;;;;;;;6.00;3.30;;;;;;;;;;5158684;27;20493;-59
2022/09/01 13:51:41;;;;;;;3.58;3.22;;;;;;;;;;5158247;27;20085;-59
2022/09/01 13:54:07;;;;;;;4.43;3.58;;;;;;;;;;5158836;27;20022;-59
2022/09/01 13:56:34;;;;;;;4.18;3.15;;;;;;;;;;5159041;27;20018;-59
2022/09/01 13:59:00;;;;;;;4.32;3.08;;;;;;;;;;5159037;27;20023;-59
2022/09/01 14:01:26;;;;;;;3.33;3.03;;;;;;;;;;5158362;27;20113;-59
2022/09/01 14:03:52;;;;;;;4.43;3.97;;;;;;;;;;5159269;27;20022;-59
2022/09/01 14:06:18;;;;;;;4.45;3.63;;;;;;;;;;5158410;27;20536;-59
2022/09/01 14:08:44;;;;;;;4.85;3.28;;;;;;;;;;5158354;27;20517;-59
2022/09/01 14:11:15;;;;;;;4.03;3.05;;;;;;;;;;5158290;27;20030;-59
2022/09/01 14:13:44;;;;;;;4.00;3.28;;;;;;;;;;5158508;27;20367;-59
2022/09/01 14:16:10;;;;;;;4.88;3.60;;;;;;;;;;5158951;27;20344;-59
2022/09/01 14:18:37;;;;;;;4.03;3.47;;;;;;;;;;5158173;27;20353;-59
2022/09/01 14:21:03;;;;;;;4.53;3.47;;;;;;;;;;5158810;27;20022;-59
2022/09/01 14:23:29;;;;;;;5.10;3.05;;;;;;;;;;5158081;27;20067;-59
2022/09/01 14:25:55;;;;;;;4.15;3.35;;;;;;;;;;5158268;27;20117;-59
2022/09/01 14:28:22;;;;;;;4.35;3.38;;;;;;;;;;5158518;27;20144;-59
2022/09/01 14:30:49;;;;;;;4.13;3.17;;;;;;;;;;5158466;27;20030;-59
2022/09/01 14:33:15;;;;;;;3.72;2.92;;;;;;;;;;5158184;27;20029;-59
2022/09/01 14:35:42;;;;;;;3.00;2.58;;;;;;;;;;5157804;27;20027;-59
2022/09/01 14:38:09;;;;;;;3.25;2.83;;;;;;;;;;5158253;27;20344;-59
2022/09/01 14:40:36;;;;;;;4.47;3.00;;;;;;;;;;5158004;27;20033;-59
2022/09/01 14:43:03;;;;;;;2.97;2.25;;;;;;;;;;5157941;27;20022;-59
2022/09/01 14:45:29;;;;;;;6.13;2.85;;;;;;;;;;5157546;27;20110;-59